PWSweather.com
Personal Weather Stations
Station Observations
KCAEXETE14
Park Place, Exeter, CA 93221

Park PlaceExeter, CA 93221

Lat: 36.283487, Lon: -119.152218

Elevation: 380

Station Type: Davis Vantage Vue

http://weather.manyjourneys.com/

High Low Average
Temperature 95.9°F35.5°C 62.6°F17.0°C 79.6°F26.4°C
Dew Point 66.0°F18.9°C 58.6°F14.8°C 61.9°F16.6°C
Winds 2.3 mph 3.7 kmh Calm Calm Calm SSWCalm SSW
Wind Gusts 3.5 mph5.6 kmh -- 1.0 mph1.6 kmh
Humidity 88% 32% 59%
Pressure 29.79 in1008.8 mb 29.68 in1005.1 mb -
Precipitation 0.00 in0.0 mm - -
Hour Temp Dew Point Humidity Winds Wind Gusts Pressure Precip Precip Rate Daily Precip Total
12:00 AM 68.6°F20.3°C 61.8°F16.6°C 79% Calm Calm -- 29.74 in1007.1 mb - 0.00 in0.0 mm 0.00 in0.0 mm
12:05 AM 68.4°F20.2°C 62.0°F16.7°C 80% Calm Calm -- 29.74 in1007.1 mb - 0.00 in0.0 mm 0.00 in0.0 mm
12:10 AM 68.3°F20.2°C 62.2°F16.8°C 81% Calm Calm -- 29.73 in1006.8 mb - 0.00 in0.0 mm 0.00 in0.0 mm
12:15 AM 68.1°F20.1°C 62.0°F16.7°C 81% Calm Calm -- 29.73 in1006.8 mb - 0.00 in0.0 mm 0.00 in0.0 mm
12:20 AM 67.8°F19.9°C 61.4°F16.3°C 80% Calm Calm -- 29.73 in1006.8 mb - 0.00 in0.0 mm 0.00 in0.0 mm
12:25 AM 67.7°F19.8°C 61.3°F16.3°C 80% Calm Calm -- 29.73 in1006.8 mb - 0.00 in0.0 mm 0.00 in0.0 mm
12:30 AM 67.7°F19.8°C 61.7°F16.5°C 81% Calm Calm -- 29.73 in1006.8 mb - 0.00 in0.0 mm 0.00 in0.0 mm
12:35 AM 67.9°F19.9°C 61.2°F16.2°C 79% Calm Calm -- 29.73 in1006.8 mb - 0.00 in0.0 mm 0.00 in0.0 mm
12:40 AM 68.1°F20.1°C 61.0°F16.1°C 78% Calm Calm -- 29.73 in1006.8 mb - 0.00 in0.0 mm 0.00 in0.0 mm
12:45 AM 68.2°F20.1°C 61.4°F16.3°C 79% Calm Calm -- 29.73 in1006.8 mb - 0.00 in0.0 mm 0.00 in0.0 mm
12:50 AM 68.1°F20.1°C 61.7°F16.5°C 80% Calm Calm -- 29.73 in1006.8 mb - 0.00 in0.0 mm 0.00 in0.0 mm
12:55 AM 67.9°F19.9°C 61.5°F16.4°C 80% Calm Calm -- 29.73 in1006.8 mb - 0.00 in0.0 mm 0.00 in0.0 mm
01:00 AM 67.8°F19.9°C 61.7°F16.5°C 81% Calm Calm -- 29.73 in1006.8 mb - 0.00 in0.0 mm 0.00 in0.0 mm
01:05 AM 67.9°F19.9°C 61.8°F16.6°C 81% Calm Calm -- 29.73 in1006.8 mb - 0.00 in0.0 mm 0.00 in0.0 mm
01:10 AM 68.1°F20.1°C 61.3°F16.3°C 79% Calm Calm -- 29.73 in1006.8 mb - 0.00 in0.0 mm 0.00 in0.0 mm
01:15 AM 67.9°F19.9°C 61.5°F16.4°C 80% Calm Calm -- 29.73 in1006.8 mb - 0.00 in0.0 mm 0.00 in0.0 mm
01:20 AM 67.1°F19.5°C 60.7°F15.9°C 80% Calm Calm -- 29.73 in1006.8 mb - 0.00 in0.0 mm 0.00 in0.0 mm
01:25 AM 66.7°F19.3°C 61.0°F16.1°C 82% Calm Calm -- 29.73 in1006.8 mb - 0.00 in0.0 mm 0.00 in0.0 mm
01:30 AM 66.6°F19.2°C 60.6°F15.9°C 81% Calm Calm -- 29.73 in1006.8 mb - 0.00 in0.0 mm 0.00 in0.0 mm
01:35 AM 66.5°F19.2°C 61.2°F16.2°C 83% Calm Calm -- 29.73 in1006.8 mb - 0.00 in0.0 mm 0.00 in0.0 mm
01:40 AM 66.4°F19.1°C 60.7°F15.9°C 82% Calm Calm -- 29.73 in1006.8 mb - 0.00 in0.0 mm 0.00 in0.0 mm
01:45 AM 66.3°F19.1°C 60.6°F15.9°C 82% Calm Calm -- 29.73 in1006.8 mb - 0.00 in0.0 mm 0.00 in0.0 mm
01:50 AM 66.2°F19.0°C 60.9°F16.1°C 83% Calm Calm -- 29.73 in1006.8 mb - 0.00 in0.0 mm 0.00 in0.0 mm
01:55 AM 66.1°F18.9°C 60.8°F16.0°C 83% Calm Calm -- 29.73 in1006.8 mb - 0.00 in0.0 mm 0.00 in0.0 mm
02:00 AM 66.0°F18.9°C 61.0°F16.1°C 84% Calm Calm -- 29.73 in1006.8 mb - 0.00 in0.0 mm 0.00 in0.0 mm
02:05 AM 65.9°F18.8°C 60.6°F15.9°C 83% Calm Calm -- 29.73 in1006.8 mb - 0.00 in0.0 mm 0.00 in0.0 mm
02:10 AM 65.9°F18.8°C 60.3°F15.7°C 82% Calm Calm -- 29.74 in1007.1 mb - 0.00 in0.0 mm 0.00 in0.0 mm
02:15 AM 65.9°F18.8°C 59.9°F15.5°C 81% Calm Calm -- 29.74 in1007.1 mb - 0.00 in0.0 mm 0.00 in0.0 mm
02:20 AM 65.8°F18.8°C 59.8°F15.4°C 81% Calm Calm -- 29.73 in1006.8 mb - 0.00 in0.0 mm 0.00 in0.0 mm
02:25 AM 65.9°F18.8°C 59.9°F15.5°C 81% Calm Calm -- 29.73 in1006.8 mb - 0.00 in0.0 mm 0.00 in0.0 mm
02:30 AM 65.9°F18.8°C 60.2°F15.7°C 82% Calm Calm -- 29.73 in1006.8 mb - 0.00 in0.0 mm 0.00 in0.0 mm
02:35 AM 65.8°F18.8°C 59.8°F15.4°C 81% Calm Calm -- 29.73 in1006.8 mb - 0.00 in0.0 mm 0.00 in0.0 mm
02:40 AM 65.9°F18.8°C 60.2°F15.7°C 82% Calm Calm -- 29.73 in1006.8 mb - 0.00 in0.0 mm 0.00 in0.0 mm
02:45 AM 65.8°F18.8°C 59.8°F15.4°C 81% Calm Calm -- 29.73 in1006.8 mb - 0.00 in0.0 mm 0.00 in0.0 mm
02:50 AM 65.8°F18.8°C 59.8°F15.4°C 81% Calm Calm -- 29.73 in1006.8 mb - 0.00 in0.0 mm 0.00 in0.0 mm
02:55 AM 65.8°F18.8°C 60.5°F15.8°C 83% Calm Calm -- 29.73 in1006.8 mb - 0.00 in0.0 mm 0.00 in0.0 mm
03:00 AM 65.7°F18.7°C 60.4°F15.8°C 83% Calm Calm -- 29.73 in1006.8 mb - 0.00 in0.0 mm 0.00 in0.0 mm
03:05 AM 65.7°F18.7°C 60.1°F15.6°C 82% Calm Calm -- 29.73 in1006.8 mb - 0.00 in0.0 mm 0.00 in0.0 mm
03:10 AM 65.7°F18.7°C 60.0°F15.6°C 82% Calm Calm -- 29.73 in1006.8 mb - 0.00 in0.0 mm 0.00 in0.0 mm
03:15 AM 65.4°F18.6°C 60.1°F15.6°C 83% Calm Calm -- 29.73 in1006.8 mb - 0.00 in0.0 mm 0.00 in0.0 mm
03:20 AM 65.2°F18.4°C 59.9°F15.5°C 83% Calm Calm -- 29.73 in1006.8 mb - 0.00 in0.0 mm 0.00 in0.0 mm
03:25 AM 65.0°F18.3°C 60.0°F15.6°C 84% Calm Calm -- 29.73 in1006.8 mb - 0.00 in0.0 mm 0.00 in0.0 mm
03:30 AM 64.8°F18.2°C 59.9°F15.5°C 84% Calm Calm -- 29.73 in1006.8 mb - 0.00 in0.0 mm 0.00 in0.0 mm
03:35 AM 64.6°F18.1°C 59.7°F15.4°C 84% Calm Calm -- 29.73 in1006.8 mb - 0.00 in0.0 mm 0.00 in0.0 mm
03:40 AM 64.5°F18.1°C 59.6°F15.3°C 84% Calm Calm -- 29.74 in1007.1 mb - 0.00 in0.0 mm 0.00 in0.0 mm
03:45 AM 64.4°F18.0°C 59.8°F15.4°C 85% Calm Calm -- 29.74 in1007.1 mb - 0.00 in0.0 mm 0.00 in0.0 mm
03:50 AM 64.2°F17.9°C 59.6°F15.3°C 85% Calm Calm -- 29.74 in1007.1 mb - 0.00 in0.0 mm 0.00 in0.0 mm
03:55 AM 64.1°F17.8°C 59.5°F15.3°C 85% Calm Calm -- 29.74 in1007.1 mb - 0.00 in0.0 mm 0.00 in0.0 mm
04:00 AM 64.0°F17.8°C 59.4°F15.2°C 85% Calm Calm -- 29.74 in1007.1 mb - 0.00 in0.0 mm 0.00 in0.0 mm
04:05 AM 63.9°F17.7°C 59.3°F15.2°C 85% Calm Calm -- 29.74 in1007.1 mb - 0.00 in0.0 mm 0.00 in0.0 mm
04:10 AM 63.8°F17.7°C 59.5°F15.3°C 86% Calm Calm -- 29.74 in1007.1 mb - 0.00 in0.0 mm 0.00 in0.0 mm
04:15 AM 63.6°F17.6°C 59.3°F15.2°C 86% Calm Calm -- 29.75 in1007.5 mb - 0.00 in0.0 mm 0.00 in0.0 mm
04:20 AM 63.3°F17.4°C 59.0°F15.0°C 86% Calm Calm -- 29.75 in1007.5 mb - 0.00 in0.0 mm 0.00 in0.0 mm
04:25 AM 63.0°F17.2°C 58.7°F14.8°C 86% Calm Calm -- 29.75 in1007.5 mb - 0.00 in0.0 mm 0.00 in0.0 mm
04:30 AM 62.9°F17.2°C 58.6°F14.8°C 86% Calm Calm -- 29.75 in1007.5 mb - 0.00 in0.0 mm 0.00 in0.0 mm
04:35 AM 62.8°F17.1°C 58.9°F14.9°C 87% Calm Calm -- 29.75 in1007.5 mb - 0.00 in0.0 mm 0.00 in0.0 mm
04:40 AM 62.8°F17.1°C 58.9°F14.9°C 87% Calm Calm -- 29.75 in1007.5 mb - 0.00 in0.0 mm 0.00 in0.0 mm
04:45 AM 62.7°F17.1°C 58.8°F14.9°C 87% Calm Calm -- 29.75 in1007.5 mb - 0.00 in0.0 mm 0.00 in0.0 mm
04:50 AM 62.9°F17.2°C 58.6°F14.8°C 86% Calm Calm -- 29.75 in1007.5 mb - 0.00 in0.0 mm 0.00 in0.0 mm
04:55 AM 62.9°F17.2°C 58.6°F14.8°C 86% Calm Calm -- 29.75 in1007.5 mb - 0.00 in0.0 mm 0.00 in0.0 mm
05:00 AM 63.0°F17.2°C 58.7°F14.8°C 86% Calm Calm -- 29.75 in1007.5 mb - 0.00 in0.0 mm 0.00 in0.0 mm
05:05 AM 63.0°F17.2°C 59.1°F15.1°C 87% Calm Calm -- 29.75 in1007.5 mb - 0.00 in0.0 mm 0.00 in0.0 mm
05:10 AM 63.0°F17.2°C 59.4°F15.2°C 88% Calm Calm -- 29.76 in1007.8 mb - 0.00 in0.0 mm 0.00 in0.0 mm
05:15 AM 62.9°F17.2°C 59.0°F15.0°C 87% Calm Calm -- 29.76 in1007.8 mb - 0.00 in0.0 mm 0.00 in0.0 mm
05:20 AM 62.8°F17.1°C 59.2°F15.1°C 88% Calm Calm -- 29.76 in1007.8 mb - 0.00 in0.0 mm 0.00 in0.0 mm
05:25 AM 62.9°F17.2°C 59.3°F15.2°C 88% Calm Calm -- 29.76 in1007.8 mb - 0.00 in0.0 mm 0.00 in0.0 mm
05:30 AM 62.8°F17.1°C 59.2°F15.1°C 88% Calm Calm -- 29.76 in1007.8 mb - 0.00 in0.0 mm 0.00 in0.0 mm
05:35 AM 62.7°F17.1°C 58.8°F14.9°C 87% Calm Calm -- 29.76 in1007.8 mb - 0.00 in0.0 mm 0.00 in0.0 mm
05:40 AM 62.6°F17.0°C 58.7°F14.8°C 87% Calm Calm -- 29.76 in1007.8 mb - 0.00 in0.0 mm 0.00 in0.0 mm
05:45 AM 62.6°F17.0°C 58.7°F14.8°C 87% Calm Calm -- 29.77 in1008.1 mb - 0.00 in0.0 mm 0.00 in0.0 mm
05:50 AM 62.7°F17.1°C 58.8°F14.9°C 87% Calm Calm -- 29.77 in1008.1 mb - 0.00 in0.0 mm 0.00 in0.0 mm
05:55 AM 62.8°F17.1°C 58.9°F14.9°C 87% Calm Calm -- 29.77 in1008.1 mb - 0.00 in0.0 mm 0.00 in0.0 mm
06:00 AM 63.0°F17.2°C 58.8°F14.9°C 86% Calm Calm -- 29.77 in1008.1 mb - 0.00 in0.0 mm 0.00 in0.0 mm
06:05 AM 63.9°F17.7°C 58.9°F14.9°C 84% Calm Calm -- 29.77 in1008.1 mb - 0.00 in0.0 mm 0.00 in0.0 mm
06:10 AM 64.5°F18.1°C 59.2°F15.1°C 83% Calm Calm -- 29.78 in1008.5 mb - 0.00 in0.0 mm 0.00 in0.0 mm
06:15 AM 64.7°F18.2°C 59.1°F15.1°C 82% Calm Calm -- 29.78 in1008.5 mb - 0.00 in0.0 mm 0.00 in0.0 mm
06:20 AM 65.2°F18.4°C 59.2°F15.1°C 81% Calm Calm -- 29.78 in1008.5 mb - 0.00 in0.0 mm 0.00 in0.0 mm
06:25 AM 65.5°F18.6°C 59.5°F15.3°C 81% Calm Calm -- 29.78 in1008.5 mb - 0.00 in0.0 mm 0.00 in0.0 mm
06:30 AM 66.0°F18.9°C 59.3°F15.2°C 79% Calm Calm -- 29.78 in1008.5 mb - 0.00 in0.0 mm 0.00 in0.0 mm
06:35 AM 66.8°F19.3°C 59.3°F15.2°C 77% Calm Calm -- 29.78 in1008.5 mb - 0.00 in0.0 mm 0.00 in0.0 mm
06:40 AM 67.6°F19.8°C 59.4°F15.2°C 75% Calm Calm -- 29.78 in1008.5 mb - 0.00 in0.0 mm 0.00 in0.0 mm
06:45 AM 68.3°F20.2°C 59.3°F15.2°C 73% Calm Calm 1.2 mph1.9 kmh 29.78 in1008.5 mb - 0.00 in0.0 mm 0.00 in0.0 mm
06:50 AM 69.0°F20.6°C 59.2°F15.1°C 71% Calm Calm 1.2 mph1.9 kmh 29.79 in1008.8 mb - 0.00 in0.0 mm 0.00 in0.0 mm
06:55 AM 69.8°F21.0°C 59.6°F15.3°C 70% Calm Calm -- 29.79 in1008.8 mb - 0.00 in0.0 mm 0.00 in0.0 mm
07:00 AM 71.1°F21.7°C 59.6°F15.3°C 67% Calm Calm -- 29.79 in1008.8 mb - 0.00 in0.0 mm 0.00 in0.0 mm
07:05 AM 72.6°F22.6°C 61.5°F16.4°C 68% Calm Calm -- 29.79 in1008.8 mb - 0.00 in0.0 mm 0.00 in0.0 mm
07:10 AM 74.0°F23.3°C 61.5°F16.4°C 65% Calm Calm -- 29.79 in1008.8 mb - 0.00 in0.0 mm 0.00 in0.0 mm
07:15 AM 74.8°F23.8°C 61.8°F16.6°C 64% Calm Calm -- 29.79 in1008.8 mb - 0.00 in0.0 mm 0.00 in0.0 mm
07:20 AM 75.5°F24.2°C 61.6°F16.4°C 62% Calm Calm -- 29.79 in1008.8 mb - 0.00 in0.0 mm 0.00 in0.0 mm
07:25 AM 76.6°F24.8°C 61.7°F16.5°C 60% Calm Calm -- 29.79 in1008.8 mb - 0.00 in0.0 mm 0.00 in0.0 mm
07:30 AM 77.0°F25.0°C 61.6°F16.4°C 59% Calm Calm -- 29.79 in1008.8 mb - 0.00 in0.0 mm 0.00 in0.0 mm
07:35 AM 77.6°F25.3°C 62.2°F16.8°C 59% Calm Calm -- 29.79 in1008.8 mb - 0.00 in0.0 mm 0.00 in0.0 mm
07:40 AM 77.9°F25.5°C 61.9°F16.6°C 58% Calm Calm -- 29.79 in1008.8 mb - 0.00 in0.0 mm 0.00 in0.0 mm
07:45 AM 78.6°F25.9°C 62.6°F17.0°C 58% Calm Calm 1.2 mph1.9 kmh 29.79 in1008.8 mb - 0.00 in0.0 mm 0.00 in0.0 mm
07:50 AM 79.3°F26.3°C 60.7°F15.9°C 53% Calm Calm -- 29.79 in1008.8 mb - 0.00 in0.0 mm 0.00 in0.0 mm
07:55 AM 79.8°F26.6°C 61.2°F16.2°C 53% Calm Calm -- 29.79 in1008.8 mb - 0.00 in0.0 mm 0.00 in0.0 mm
08:00 AM 80.5°F26.9°C 61.8°F16.6°C 53% Calm Calm -- 29.79 in1008.8 mb - 0.00 in0.0 mm 0.00 in0.0 mm
08:05 AM 81.3°F27.4°C 60.9°F16.1°C 50% Calm Calm 1.2 mph1.9 kmh 29.79 in1008.8 mb - 0.00 in0.0 mm 0.00 in0.0 mm
08:10 AM 81.6°F27.6°C 61.7°F16.5°C 51% Calm Calm 1.2 mph1.9 kmh 29.79 in1008.8 mb - 0.00 in0.0 mm 0.00 in0.0 mm
08:15 AM 81.5°F27.5°C 61.1°F16.2°C 50% Calm Calm 1.2 mph1.9 kmh 29.79 in1008.8 mb - 0.00 in0.0 mm 0.00 in0.0 mm
08:20 AM 81.3°F27.4°C 60.3°F15.7°C 49% Calm Calm 1.2 mph1.9 kmh 29.79 in1008.8 mb - 0.00 in0.0 mm 0.00 in0.0 mm
08:25 AM 81.1°F27.3°C 59.6°F15.3°C 48% 1.2 mph E1.9 kmh E 2.3 mph3.7 kmh 29.79 in1008.8 mb - 0.00 in0.0 mm 0.00 in0.0 mm
08:30 AM 80.8°F27.1°C 59.3°F15.2°C 48% 1.2 mph E1.9 kmh E 2.3 mph3.7 kmh 29.79 in1008.8 mb - 0.00 in0.0 mm 0.00 in0.0 mm
08:35 AM 80.9°F27.2°C 61.6°F16.4°C 52% Calm Calm 3.5 mph5.6 kmh 29.79 in1008.8 mb - 0.00 in0.0 mm 0.00 in0.0 mm
08:40 AM 81.3°F27.4°C 60.9°F16.1°C 50% Calm Calm 1.2 mph1.9 kmh 29.79 in1008.8 mb - 0.00 in0.0 mm 0.00 in0.0 mm
08:45 AM 81.9°F27.7°C 61.4°F16.3°C 50% Calm Calm -- 29.79 in1008.8 mb - 0.00 in0.0 mm 0.00 in0.0 mm
08:50 AM 82.2°F27.9°C 61.2°F16.2°C 49% Calm Calm 1.2 mph1.9 kmh 29.79 in1008.8 mb - 0.00 in0.0 mm 0.00 in0.0 mm
08:55 AM 82.7°F28.2°C 62.2°F16.8°C 50% Calm Calm 1.2 mph1.9 kmh 29.79 in1008.8 mb - 0.00 in0.0 mm 0.00 in0.0 mm
09:00 AM 83.1°F28.4°C 62.5°F16.9°C 50% Calm Calm 1.2 mph1.9 kmh 29.79 in1008.8 mb - 0.00 in0.0 mm 0.00 in0.0 mm
09:05 AM 83.4°F28.6°C 61.7°F16.5°C 48% 1.2 mph SE1.9 kmh SE 2.3 mph3.7 kmh 29.79 in1008.8 mb - 0.00 in0.0 mm 0.00 in0.0 mm
09:10 AM 83.6°F28.7°C 61.2°F16.2°C 47% 1.2 mph SSE1.9 kmh SSE 3.5 mph5.6 kmh 29.79 in1008.8 mb - 0.00 in0.0 mm 0.00 in0.0 mm
09:15 AM 83.9°F28.8°C 62.1°F16.7°C 48% Calm Calm 2.3 mph3.7 kmh 29.79 in1008.8 mb - 0.00 in0.0 mm 0.00 in0.0 mm
09:20 AM 84.3°F29.1°C 61.9°F16.6°C 47% Calm Calm -- 29.79 in1008.8 mb - 0.00 in0.0 mm 0.00 in0.0 mm
09:25 AM 84.8°F29.3°C 62.3°F16.8°C 47% Calm Calm 2.3 mph3.7 kmh 29.79 in1008.8 mb - 0.00 in0.0 mm 0.00 in0.0 mm
09:30 AM 85.2°F29.6°C 62.1°F16.7°C 46% Calm Calm 1.2 mph1.9 kmh 29.79 in1008.8 mb - 0.00 in0.0 mm 0.00 in0.0 mm
09:35 AM 85.8°F29.9°C 62.6°F17.0°C 46% Calm Calm 2.3 mph3.7 kmh 29.79 in1008.8 mb - 0.00 in0.0 mm 0.00 in0.0 mm
09:40 AM 86.3°F30.2°C 62.5°F16.9°C 45% Calm Calm 1.2 mph1.9 kmh 29.79 in1008.8 mb - 0.00 in0.0 mm 0.00 in0.0 mm
09:45 AM 86.2°F30.1°C 61.7°F16.5°C 44% 1.2 mph SSE1.9 kmh SSE 1.2 mph1.9 kmh 29.78 in1008.5 mb - 0.00 in0.0 mm 0.00 in0.0 mm
09:50 AM 86.3°F30.2°C 61.8°F16.6°C 44% Calm Calm 3.5 mph5.6 kmh 29.78 in1008.5 mb - 0.00 in0.0 mm 0.00 in0.0 mm
09:55 AM 86.6°F30.3°C 62.1°F16.7°C 44% Calm Calm 2.3 mph3.7 kmh 29.78 in1008.5 mb - 0.00 in0.0 mm 0.00 in0.0 mm
10:00 AM 87.0°F30.6°C 63.1°F17.3°C 45% Calm Calm 1.2 mph1.9 kmh 29.78 in1008.5 mb - 0.00 in0.0 mm 0.00 in0.0 mm
10:05 AM 87.5°F30.8°C 61.6°F16.4°C 42% 1.2 mph SE1.9 kmh SE 2.3 mph3.7 kmh 29.78 in1008.5 mb - 0.00 in0.0 mm 0.00 in0.0 mm
10:10 AM 87.6°F30.9°C 63.0°F17.2°C 44% Calm Calm 1.2 mph1.9 kmh 29.78 in1008.5 mb - 0.00 in0.0 mm 0.00 in0.0 mm
10:15 AM 88.1°F31.2°C 64.1°F17.8°C 45% Calm Calm -- 29.78 in1008.5 mb - 0.00 in0.0 mm 0.00 in0.0 mm
10:20 AM 88.4°F31.3°C 64.4°F18.0°C 45% Calm Calm -- 29.78 in1008.5 mb - 0.00 in0.0 mm 0.00 in0.0 mm
10:25 AM 89.1°F31.7°C 64.3°F17.9°C 44% Calm Calm -- 29.78 in1008.5 mb - 0.00 in0.0 mm 0.00 in0.0 mm
10:30 AM 89.4°F31.9°C 64.0°F17.8°C 43% Calm Calm 3.5 mph5.6 kmh 29.78 in1008.5 mb - 0.00 in0.0 mm 0.00 in0.0 mm
10:35 AM 89.4°F31.9°C 61.2°F16.2°C 39% Calm Calm 1.2 mph1.9 kmh 29.77 in1008.1 mb - 0.00 in0.0 mm 0.00 in0.0 mm
10:40 AM 89.3°F31.8°C 63.9°F17.7°C 43% 1.2 mph NNE1.9 kmh NNE 1.2 mph1.9 kmh 29.77 in1008.1 mb - 0.00 in0.0 mm 0.00 in0.0 mm
10:45 AM 89.6°F32.0°C 63.5°F17.5°C 42% Calm Calm -- 29.77 in1008.1 mb - 0.00 in0.0 mm 0.00 in0.0 mm
10:50 AM 89.8°F32.1°C 65.0°F18.3°C 44% Calm Calm -- 29.77 in1008.1 mb - 0.00 in0.0 mm 0.00 in0.0 mm
10:55 AM 90.6°F32.6°C 65.0°F18.3°C 43% Calm Calm 1.2 mph1.9 kmh 29.77 in1008.1 mb - 0.00 in0.0 mm 0.00 in0.0 mm
11:00 AM 90.8°F32.7°C 63.1°F17.3°C 40% Calm Calm -- 29.77 in1008.1 mb - 0.00 in0.0 mm 0.00 in0.0 mm
11:05 AM 90.3°F32.4°C 64.8°F18.2°C 43% Calm Calm 1.2 mph1.9 kmh 29.77 in1008.1 mb - 0.00 in0.0 mm 0.00 in0.0 mm
11:10 AM 90.2°F32.3°C 61.9°F16.6°C 39% Calm Calm 1.2 mph1.9 kmh 29.77 in1008.1 mb - 0.00 in0.0 mm 0.00 in0.0 mm
11:15 AM 90.5°F32.5°C 62.9°F17.2°C 40% Calm Calm 1.2 mph1.9 kmh 29.77 in1008.1 mb - 0.00 in0.0 mm 0.00 in0.0 mm
11:20 AM 90.4°F32.4°C 60.6°F15.9°C 37% Calm Calm 1.2 mph1.9 kmh 29.76 in1007.8 mb - 0.00 in0.0 mm 0.00 in0.0 mm
11:25 AM 90.6°F32.6°C 64.4°F18.0°C 42% 1.2 mph E1.9 kmh E 2.3 mph3.7 kmh 29.76 in1007.8 mb - 0.00 in0.0 mm 0.00 in0.0 mm
11:30 AM 90.6°F32.6°C 63.0°F17.2°C 40% Calm Calm 1.2 mph1.9 kmh 29.76 in1007.8 mb - 0.00 in0.0 mm 0.00 in0.0 mm
11:35 AM 91.5°F33.1°C 65.1°F18.4°C 42% Calm Calm 1.2 mph1.9 kmh 29.76 in1007.8 mb - 0.00 in0.0 mm 0.00 in0.0 mm
11:40 AM 92.3°F33.5°C 63.1°F17.3°C 38% Calm Calm 2.3 mph3.7 kmh 29.76 in1007.8 mb - 0.00 in0.0 mm 0.00 in0.0 mm
11:45 AM 92.4°F33.6°C 63.9°F17.7°C 39% 1.2 mph NW1.9 kmh NW 2.3 mph3.7 kmh 29.76 in1007.8 mb - 0.00 in0.0 mm 0.00 in0.0 mm
11:50 AM 92.2°F33.4°C 62.2°F16.8°C 37% Calm Calm 1.2 mph1.9 kmh 29.76 in1007.8 mb - 0.00 in0.0 mm 0.00 in0.0 mm
11:55 AM 92.0°F33.3°C 62.0°F16.7°C 37% Calm Calm 1.2 mph1.9 kmh 29.76 in1007.8 mb - 0.00 in0.0 mm 0.00 in0.0 mm
12:00 PM 92.0°F33.3°C 61.2°F16.2°C 36% Calm Calm 1.2 mph1.9 kmh 29.75 in1007.5 mb - 0.00 in0.0 mm 0.00 in0.0 mm
12:05 PM 92.2°F33.4°C 63.0°F17.2°C 38% 1.2 mph WNW1.9 kmh WNW 3.5 mph5.6 kmh 29.75 in1007.5 mb - 0.00 in0.0 mm 0.00 in0.0 mm
12:10 PM 92.4°F33.6°C 62.4°F16.9°C 37% 1.2 mph N1.9 kmh N 3.5 mph5.6 kmh 29.75 in1007.5 mb - 0.00 in0.0 mm 0.00 in0.0 mm
12:15 PM 92.5°F33.6°C 63.9°F17.7°C 39% Calm Calm 1.2 mph1.9 kmh 29.75 in1007.5 mb - 0.00 in0.0 mm 0.00 in0.0 mm
12:20 PM 93.0°F33.9°C 63.6°F17.6°C 38% Calm Calm 1.2 mph1.9 kmh 29.75 in1007.5 mb - 0.00 in0.0 mm 0.00 in0.0 mm
12:25 PM 92.8°F33.8°C 61.1°F16.2°C 35% 1.2 mph N1.9 kmh N 2.3 mph3.7 kmh 29.74 in1007.1 mb - 0.00 in0.0 mm 0.00 in0.0 mm
12:30 PM 92.9°F33.8°C 62.8°F17.1°C 37% Calm Calm 1.2 mph1.9 kmh 29.74 in1007.1 mb - 0.00 in0.0 mm 0.00 in0.0 mm
12:35 PM 93.1°F33.9°C 62.2°F16.8°C 36% 1.2 mph N1.9 kmh N 2.3 mph3.7 kmh 29.74 in1007.1 mb - 0.00 in0.0 mm 0.00 in0.0 mm
12:40 PM 92.6°F33.7°C 62.5°F16.9°C 37% 1.2 mph NW1.9 kmh NW 2.3 mph3.7 kmh 29.74 in1007.1 mb - 0.00 in0.0 mm 0.00 in0.0 mm
12:45 PM 92.3°F33.5°C 60.7°F15.9°C 35% 1.2 mph NW1.9 kmh NW 3.5 mph5.6 kmh 29.73 in1006.8 mb - 0.00 in0.0 mm 0.00 in0.0 mm
12:50 PM 92.1°F33.4°C 60.5°F15.8°C 35% 1.2 mph NW1.9 kmh NW 2.3 mph3.7 kmh 29.73 in1006.8 mb - 0.00 in0.0 mm 0.00 in0.0 mm
12:55 PM 92.4°F33.6°C 60.8°F16.0°C 35% Calm Calm 3.5 mph5.6 kmh 29.73 in1006.8 mb - 0.00 in0.0 mm 0.00 in0.0 mm
01:00 PM 92.8°F33.8°C 61.1°F16.2°C 35% 1.2 mph WSW1.9 kmh WSW 2.3 mph3.7 kmh 29.73 in1006.8 mb - 0.00 in0.0 mm 0.00 in0.0 mm
01:05 PM 93.3°F34.1°C 62.3°F16.8°C 36% Calm Calm -- 29.73 in1006.8 mb - 0.00 in0.0 mm 0.00 in0.0 mm
01:10 PM 93.9°F34.4°C 62.1°F16.7°C 35% 1.2 mph NW1.9 kmh NW 3.5 mph5.6 kmh 29.73 in1006.8 mb - 0.00 in0.0 mm 0.00 in0.0 mm
01:15 PM 93.6°F34.2°C 61.8°F16.6°C 35% 1.2 mph NW1.9 kmh NW 3.5 mph5.6 kmh 29.73 in1006.8 mb - 0.00 in0.0 mm 0.00 in0.0 mm
01:20 PM 93.5°F34.2°C 61.7°F16.5°C 35% 1.2 mph NW1.9 kmh NW 1.2 mph1.9 kmh 29.72 in1006.4 mb - 0.00 in0.0 mm 0.00 in0.0 mm
01:25 PM 94.0°F34.4°C 62.2°F16.8°C 35% Calm Calm 2.3 mph3.7 kmh 29.72 in1006.4 mb - 0.00 in0.0 mm 0.00 in0.0 mm
01:30 PM 94.9°F34.9°C 62.1°F16.7°C 34% Calm Calm 1.2 mph1.9 kmh 29.72 in1006.4 mb - 0.00 in0.0 mm 0.00 in0.0 mm
01:35 PM 94.8°F34.9°C 62.1°F16.7°C 34% Calm Calm -- 29.72 in1006.4 mb - 0.00 in0.0 mm 0.00 in0.0 mm
01:40 PM 94.7°F34.8°C 60.3°F15.7°C 32% 1.2 mph NW1.9 kmh NW 2.3 mph3.7 kmh 29.72 in1006.4 mb - 0.00 in0.0 mm 0.00 in0.0 mm
01:45 PM 95.1°F35.1°C 61.5°F16.4°C 33% 1.2 mph NE1.9 kmh NE 2.3 mph3.7 kmh 29.71 in1006.1 mb - 0.00 in0.0 mm 0.00 in0.0 mm
01:50 PM 95.0°F35.0°C 62.2°F16.8°C 34% 1.2 mph NW1.9 kmh NW 3.5 mph5.6 kmh 29.71 in1006.1 mb - 0.00 in0.0 mm 0.00 in0.0 mm
01:55 PM 95.1°F35.1°C 61.4°F16.3°C 33% 1.2 mph NW1.9 kmh NW 2.3 mph3.7 kmh 29.71 in1006.1 mb - 0.00 in0.0 mm 0.00 in0.0 mm
02:00 PM 94.8°F34.9°C 62.1°F16.7°C 34% Calm Calm 1.2 mph1.9 kmh 29.71 in1006.1 mb - 0.00 in0.0 mm 0.00 in0.0 mm
02:05 PM 95.2°F35.1°C 64.0°F17.8°C 36% 1.2 mph NW1.9 kmh NW 1.2 mph1.9 kmh 29.71 in1006.1 mb - 0.00 in0.0 mm 0.00 in0.0 mm
02:10 PM 95.3°F35.2°C 62.5°F16.9°C 34% Calm Calm 1.2 mph1.9 kmh 29.70 in1005.8 mb - 0.00 in0.0 mm 0.00 in0.0 mm
02:15 PM 95.9°F35.5°C 62.1°F16.7°C 33% 1.2 mph NNW1.9 kmh NNW 2.3 mph3.7 kmh 29.70 in1005.8 mb - 0.00 in0.0 mm 0.00 in0.0 mm
02:20 PM 95.3°F35.2°C 61.6°F16.4°C 33% 1.2 mph W1.9 kmh W 3.5 mph5.6 kmh 29.70 in1005.8 mb - 0.00 in0.0 mm 0.00 in0.0 mm
02:25 PM 95.1°F35.1°C 61.5°F16.4°C 33% Calm Calm 1.2 mph1.9 kmh 29.70 in1005.8 mb - 0.00 in0.0 mm 0.00 in0.0 mm
02:30 PM 94.9°F34.9°C 62.1°F16.7°C 34% 2.3 mph NW3.7 kmh NW 3.5 mph5.6 kmh 29.70 in1005.8 mb - 0.00 in0.0 mm 0.00 in0.0 mm
02:35 PM 94.6°F34.8°C 61.9°F16.6°C 34% Calm Calm 1.2 mph1.9 kmh 29.70 in1005.8 mb - 0.00 in0.0 mm 0.00 in0.0 mm
02:40 PM 94.9°F34.9°C 62.1°F16.7°C 34% 1.2 mph NW1.9 kmh NW 3.5 mph5.6 kmh 29.70 in1005.8 mb - 0.00 in0.0 mm 0.00 in0.0 mm
02:45 PM 95.3°F35.2°C 63.3°F17.4°C 35% Calm Calm 1.2 mph1.9 kmh 29.69 in1005.4 mb - 0.00 in0.0 mm 0.00 in0.0 mm
02:50 PM 95.0°F35.0°C 62.2°F16.8°C 34% 1.2 mph NW1.9 kmh NW 3.5 mph5.6 kmh 29.69 in1005.4 mb - 0.00 in0.0 mm 0.00 in0.0 mm
02:55 PM 94.7°F34.8°C 62.8°F17.1°C 35% 1.2 mph NNW1.9 kmh NNW 3.5 mph5.6 kmh 29.69 in1005.4 mb - 0.00 in0.0 mm 0.00 in0.0 mm
03:00 PM 94.6°F34.8°C 62.7°F17.1°C 35% 1.2 mph NW1.9 kmh NW 3.5 mph5.6 kmh 29.69 in1005.4 mb - 0.00 in0.0 mm 0.00 in0.0 mm
03:05 PM 94.8°F34.9°C 63.7°F17.6°C 36% 1.2 mph NW1.9 kmh NW 1.2 mph1.9 kmh 29.69 in1005.4 mb - 0.00 in0.0 mm 0.00 in0.0 mm
03:10 PM 95.0°F35.0°C 62.2°F16.8°C 34% 1.2 mph WNW1.9 kmh WNW 1.2 mph1.9 kmh 29.69 in1005.4 mb - 0.00 in0.0 mm 0.00 in0.0 mm
03:15 PM 94.9°F34.9°C 63.0°F17.2°C 35% 2.3 mph NW3.7 kmh NW 3.5 mph5.6 kmh 29.69 in1005.4 mb - 0.00 in0.0 mm 0.00 in0.0 mm
03:20 PM 94.9°F34.9°C 62.9°F17.2°C 35% 1.2 mph NW1.9 kmh NW 3.5 mph5.6 kmh 29.68 in1005.1 mb - 0.00 in0.0 mm 0.00 in0.0 mm
03:25 PM 94.6°F34.8°C 61.9°F16.6°C 34% Calm Calm 1.2 mph1.9 kmh 29.68 in1005.1 mb - 0.00 in0.0 mm 0.00 in0.0 mm
03:30 PM 94.8°F34.9°C 62.0°F16.7°C 34% 2.3 mph NW3.7 kmh NW 3.5 mph5.6 kmh 29.68 in1005.1 mb - 0.00 in0.0 mm 0.00 in0.0 mm
03:35 PM 94.4°F34.7°C 61.7°F16.5°C 34% 1.2 mph NW1.9 kmh NW 2.3 mph3.7 kmh 29.68 in1005.1 mb - 0.00 in0.0 mm 0.00 in0.0 mm
03:40 PM 94.4°F34.7°C 62.5°F16.9°C 35% 1.2 mph NW1.9 kmh NW 1.2 mph1.9 kmh 29.68 in1005.1 mb - 0.00 in0.0 mm 0.00 in0.0 mm
03:45 PM 94.6°F34.8°C 61.9°F16.6°C 34% 1.2 mph NW1.9 kmh NW 2.3 mph3.7 kmh 29.68 in1005.1 mb - 0.00 in0.0 mm 0.00 in0.0 mm
03:50 PM 94.6°F34.8°C 62.7°F17.1°C 35% Calm Calm 2.3 mph3.7 kmh 29.68 in1005.1 mb - 0.00 in0.0 mm 0.00 in0.0 mm
03:55 PM 94.6°F34.8°C 61.0°F16.1°C 33% Calm Calm -- 29.68 in1005.1 mb - 0.00 in0.0 mm 0.00 in0.0 mm
04:00 PM 94.9°F34.9°C 61.3°F16.3°C 33% Calm Calm 1.2 mph1.9 kmh 29.68 in1005.1 mb - 0.00 in0.0 mm 0.00 in0.0 mm
04:05 PM 95.0°F35.0°C 62.2°F16.8°C 34% 2.3 mph NNW3.7 kmh NNW 2.3 mph3.7 kmh 29.68 in1005.1 mb - 0.00 in0.0 mm 0.00 in0.0 mm
04:10 PM 94.7°F34.8°C 61.9°F16.6°C 34% 1.2 mph NW1.9 kmh NW 2.3 mph3.7 kmh 29.68 in1005.1 mb - 0.00 in0.0 mm 0.00 in0.0 mm
04:15 PM 94.8°F34.9°C 61.2°F16.2°C 33% Calm Calm 1.2 mph1.9 kmh 29.68 in1005.1 mb - 0.00 in0.0 mm 0.00 in0.0 mm
04:20 PM 94.8°F34.9°C 62.1°F16.7°C 34% 1.2 mph WNW1.9 kmh WNW 1.2 mph1.9 kmh 29.68 in1005.1 mb - 0.00 in0.0 mm 0.00 in0.0 mm
04:25 PM 94.7°F34.8°C 62.8°F17.1°C 35% Calm Calm 1.2 mph1.9 kmh 29.68 in1005.1 mb - 0.00 in0.0 mm 0.00 in0.0 mm
04:30 PM 94.5°F34.7°C 61.8°F16.6°C 34% 1.2 mph WNW1.9 kmh WNW 2.3 mph3.7 kmh 29.68 in1005.1 mb - 0.00 in0.0 mm 0.00 in0.0 mm
04:35 PM 94.4°F34.7°C 61.7°F16.5°C 34% Calm Calm -- 29.68 in1005.1 mb - 0.00 in0.0 mm 0.00 in0.0 mm
04:40 PM 94.6°F34.8°C 61.9°F16.6°C 34% Calm Calm -- 29.68 in1005.1 mb - 0.00 in0.0 mm 0.00 in0.0 mm
04:45 PM 94.5°F34.7°C 62.6°F17.0°C 35% 1.2 mph NW1.9 kmh NW 2.3 mph3.7 kmh 29.68 in1005.1 mb - 0.00 in0.0 mm 0.00 in0.0 mm
04:50 PM 94.2°F34.6°C 61.5°F16.4°C 34% Calm Calm 1.2 mph1.9 kmh 29.68 in1005.1 mb - 0.00 in0.0 mm 0.00 in0.0 mm
04:55 PM 93.9°F34.4°C 61.3°F16.3°C 34% 1.2 mph NW1.9 kmh NW 2.3 mph3.7 kmh 29.68 in1005.1 mb - 0.00 in0.0 mm 0.00 in0.0 mm
05:00 PM 93.8°F34.3°C 62.8°F17.1°C 36% Calm Calm 1.2 mph1.9 kmh 29.68 in1005.1 mb - 0.00 in0.0 mm 0.00 in0.0 mm
05:05 PM 93.6°F34.2°C 62.6°F17.0°C 36% Calm Calm 1.2 mph1.9 kmh 29.68 in1005.1 mb - 0.00 in0.0 mm 0.00 in0.0 mm
05:10 PM 93.3°F34.1°C 63.1°F17.3°C 37% Calm Calm 1.2 mph1.9 kmh 29.68 in1005.1 mb - 0.00 in0.0 mm 0.00 in0.0 mm
05:15 PM 92.7°F33.7°C 63.3°F17.4°C 38% Calm Calm 1.2 mph1.9 kmh 29.68 in1005.1 mb - 0.00 in0.0 mm 0.00 in0.0 mm
05:20 PM 92.0°F33.3°C 62.7°F17.1°C 38% 1.2 mph NW1.9 kmh NW 2.3 mph3.7 kmh 29.68 in1005.1 mb - 0.00 in0.0 mm 0.00 in0.0 mm
05:25 PM 91.5°F33.1°C 62.3°F16.8°C 38% Calm Calm 1.2 mph1.9 kmh 29.68 in1005.1 mb - 0.00 in0.0 mm 0.00 in0.0 mm
05:30 PM 91.1°F32.8°C 62.7°F17.1°C 39% Calm Calm -- 29.68 in1005.1 mb - 0.00 in0.0 mm 0.00 in0.0 mm
05:35 PM 90.8°F32.7°C 62.4°F16.9°C 39% Calm Calm -- 29.68 in1005.1 mb - 0.00 in0.0 mm 0.00 in0.0 mm
05:40 PM 90.4°F32.4°C 63.5°F17.5°C 41% Calm Calm 1.2 mph1.9 kmh 29.68 in1005.1 mb - 0.00 in0.0 mm 0.00 in0.0 mm
05:45 PM 90.0°F32.2°C 63.1°F17.3°C 41% Calm Calm 1.2 mph1.9 kmh 29.68 in1005.1 mb - 0.00 in0.0 mm 0.00 in0.0 mm
05:50 PM 89.6°F32.0°C 62.8°F17.1°C 41% Calm Calm -- 29.68 in1005.1 mb - 0.00 in0.0 mm 0.00 in0.0 mm
05:55 PM 89.2°F31.8°C 62.4°F16.9°C 41% Calm Calm -- 29.68 in1005.1 mb - 0.00 in0.0 mm 0.00 in0.0 mm
06:00 PM 88.8°F31.6°C 62.0°F16.7°C 41% Calm Calm -- 29.68 in1005.1 mb - 0.00 in0.0 mm 0.00 in0.0 mm
06:05 PM 88.4°F31.3°C 62.4°F16.9°C 42% Calm Calm -- 29.68 in1005.1 mb - 0.00 in0.0 mm 0.00 in0.0 mm
06:10 PM 88.0°F31.1°C 62.7°F17.1°C 43% Calm Calm -- 29.68 in1005.1 mb - 0.00 in0.0 mm 0.00 in0.0 mm
06:15 PM 87.5°F30.8°C 62.9°F17.2°C 44% Calm Calm -- 29.68 in1005.1 mb - 0.00 in0.0 mm 0.00 in0.0 mm
06:20 PM 86.9°F30.5°C 63.0°F17.2°C 45% Calm Calm -- 29.68 in1005.1 mb - 0.00 in0.0 mm 0.00 in0.0 mm
06:25 PM 86.2°F30.1°C 63.0°F17.2°C 46% Calm Calm -- 29.69 in1005.4 mb - 0.00 in0.0 mm 0.00 in0.0 mm
06:30 PM 85.6°F29.8°C 63.1°F17.3°C 47% Calm Calm -- 29.69 in1005.4 mb - 0.00 in0.0 mm 0.00 in0.0 mm
06:35 PM 84.9°F29.4°C 64.2°F17.9°C 50% Calm Calm -- 29.69 in1005.4 mb - 0.00 in0.0 mm 0.00 in0.0 mm
06:40 PM 84.3°F29.1°C 64.8°F18.2°C 52% Calm Calm -- 29.69 in1005.4 mb - 0.00 in0.0 mm 0.00 in0.0 mm
06:45 PM 83.7°F28.7°C 64.8°F18.2°C 53% Calm Calm -- 29.70 in1005.8 mb - 0.00 in0.0 mm 0.00 in0.0 mm
06:50 PM 83.2°F28.4°C 65.3°F18.5°C 55% Calm Calm -- 29.70 in1005.8 mb - 0.00 in0.0 mm 0.00 in0.0 mm
06:55 PM 82.6°F28.1°C 64.8°F18.2°C 55% Calm Calm -- 29.70 in1005.8 mb - 0.00 in0.0 mm 0.00 in0.0 mm
07:00 PM 82.1°F27.8°C 65.9°F18.8°C 58% Calm Calm -- 29.70 in1005.8 mb - 0.00 in0.0 mm 0.00 in0.0 mm
07:05 PM 81.6°F27.6°C 65.8°F18.8°C 59% Calm Calm -- 29.70 in1005.8 mb - 0.00 in0.0 mm 0.00 in0.0 mm
07:10 PM 81.1°F27.3°C 64.4°F18.0°C 57% Calm Calm -- 29.70 in1005.8 mb - 0.00 in0.0 mm 0.00 in0.0 mm
07:15 PM 80.9°F27.2°C 64.2°F17.9°C 57% Calm Calm -- 29.70 in1005.8 mb - 0.00 in0.0 mm 0.00 in0.0 mm
07:20 PM 80.9°F27.2°C 64.7°F18.2°C 58% Calm Calm -- 29.71 in1006.1 mb - 0.00 in0.0 mm 0.00 in0.0 mm
07:25 PM 80.7°F27.1°C 64.5°F18.1°C 58% Calm Calm -- 29.71 in1006.1 mb - 0.00 in0.0 mm 0.00 in0.0 mm
07:30 PM 80.5°F26.9°C 64.3°F17.9°C 58% Calm Calm -- 29.71 in1006.1 mb - 0.00 in0.0 mm 0.00 in0.0 mm
07:35 PM 80.2°F26.8°C 65.1°F18.4°C 60% Calm Calm -- 29.71 in1006.1 mb - 0.00 in0.0 mm 0.00 in0.0 mm
07:40 PM 79.9°F26.6°C 64.8°F18.2°C 60% Calm Calm -- 29.72 in1006.4 mb - 0.00 in0.0 mm 0.00 in0.0 mm
07:45 PM 79.6°F26.4°C 64.5°F18.1°C 60% Calm Calm -- 29.72 in1006.4 mb - 0.00 in0.0 mm 0.00 in0.0 mm
07:50 PM 79.5°F26.4°C 65.8°F18.8°C 63% Calm Calm -- 29.72 in1006.4 mb - 0.00 in0.0 mm 0.00 in0.0 mm
07:55 PM 79.3°F26.3°C 65.6°F18.7°C 63% Calm Calm -- 29.72 in1006.4 mb - 0.00 in0.0 mm 0.00 in0.0 mm
08:00 PM 79.0°F26.1°C 65.8°F18.8°C 64% Calm Calm -- 29.72 in1006.4 mb - 0.00 in0.0 mm 0.00 in0.0 mm
08:05 PM 78.8°F26.0°C 66.0°F18.9°C 65% Calm Calm -- 29.72 in1006.4 mb - 0.00 in0.0 mm 0.00 in0.0 mm
08:10 PM 78.5°F25.8°C 65.8°F18.8°C 65% Calm Calm -- 29.73 in1006.8 mb - 0.00 in0.0 mm 0.00 in0.0 mm
08:15 PM 78.4°F25.8°C 65.6°F18.7°C 65% Calm Calm -- 29.73 in1006.8 mb - 0.00 in0.0 mm 0.00 in0.0 mm
08:20 PM 78.1°F25.6°C 65.3°F18.5°C 65% Calm Calm -- 29.73 in1006.8 mb - 0.00 in0.0 mm 0.00 in0.0 mm
08:25 PM 77.7°F25.4°C 65.0°F18.3°C 65% Calm Calm -- 29.73 in1006.8 mb - 0.00 in0.0 mm 0.00 in0.0 mm
08:30 PM 77.5°F25.3°C 64.8°F18.2°C 65% Calm Calm -- 29.73 in1006.8 mb - 0.00 in0.0 mm 0.00 in0.0 mm
08:35 PM 77.6°F25.3°C 64.5°F18.1°C 64% Calm Calm -- 29.73 in1006.8 mb - 0.00 in0.0 mm 0.00 in0.0 mm
08:40 PM 77.6°F25.3°C 64.5°F18.1°C 64% Calm Calm -- 29.74 in1007.1 mb - 0.00 in0.0 mm 0.00 in0.0 mm
08:45 PM 77.4°F25.2°C 64.3°F17.9°C 64% Calm Calm -- 29.74 in1007.1 mb - 0.00 in0.0 mm 0.00 in0.0 mm
08:50 PM 77.3°F25.2°C 64.2°F17.9°C 64% Calm Calm -- 29.74 in1007.1 mb - 0.00 in0.0 mm 0.00 in0.0 mm
08:55 PM 77.2°F25.1°C 64.1°F17.8°C 64% Calm Calm -- 29.74 in1007.1 mb - 0.00 in0.0 mm 0.00 in0.0 mm
09:00 PM 77.0°F25.0°C 63.9°F17.7°C 64% Calm Calm -- 29.74 in1007.1 mb - 0.00 in0.0 mm 0.00 in0.0 mm
09:05 PM 76.8°F24.9°C 64.1°F17.8°C 65% Calm Calm -- 29.74 in1007.1 mb - 0.00 in0.0 mm 0.00 in0.0 mm
09:10 PM 76.6°F24.8°C 64.0°F17.8°C 65% Calm Calm -- 29.74 in1007.1 mb - 0.00 in0.0 mm 0.00 in0.0 mm
09:15 PM 76.4°F24.7°C 64.2°F17.9°C 66% Calm Calm -- 29.75 in1007.5 mb - 0.00 in0.0 mm 0.00 in0.0 mm
09:20 PM 76.2°F24.6°C 63.6°F17.6°C 65% Calm Calm -- 29.75 in1007.5 mb - 0.00 in0.0 mm 0.00 in0.0 mm
09:25 PM 76.1°F24.5°C 63.5°F17.5°C 65% Calm Calm -- 29.75 in1007.5 mb - 0.00 in0.0 mm 0.00 in0.0 mm
09:30 PM 76.0°F24.4°C 64.2°F17.9°C 67% Calm Calm -- 29.75 in1007.5 mb - 0.00 in0.0 mm 0.00 in0.0 mm
09:35 PM 75.7°F24.3°C 64.3°F17.9°C 68% Calm Calm -- 29.75 in1007.5 mb - 0.00 in0.0 mm 0.00 in0.0 mm
09:40 PM 75.3°F24.1°C 64.0°F17.8°C 68% Calm Calm -- 29.75 in1007.5 mb - 0.00 in0.0 mm 0.00 in0.0 mm
09:45 PM 75.1°F23.9°C 63.0°F17.2°C 66% Calm Calm -- 29.75 in1007.5 mb - 0.00 in0.0 mm 0.00 in0.0 mm
09:50 PM 75.1°F23.9°C 62.6°F17.0°C 65% Calm Calm -- 29.75 in1007.5 mb - 0.00 in0.0 mm 0.00 in0.0 mm
09:55 PM 75.0°F23.9°C 62.9°F17.2°C 66% Calm Calm -- 29.75 in1007.5 mb - 0.00 in0.0 mm 0.00 in0.0 mm
10:00 PM 74.9°F23.8°C 63.2°F17.3°C 67% Calm Calm -- 29.75 in1007.5 mb - 0.00 in0.0 mm 0.00 in0.0 mm
10:05 PM 74.8°F23.8°C 62.2°F16.8°C 65% Calm Calm -- 29.75 in1007.5 mb - 0.00 in0.0 mm 0.00 in0.0 mm
10:10 PM 74.8°F23.8°C 62.6°F17.0°C 66% Calm Calm -- 29.75 in1007.5 mb - 0.00 in0.0 mm 0.00 in0.0 mm
10:15 PM 74.8°F23.8°C 62.7°F17.1°C 66% Calm Calm -- 29.76 in1007.8 mb - 0.00 in0.0 mm 0.00 in0.0 mm
10:20 PM 74.8°F23.8°C 62.3°F16.8°C 65% Calm Calm -- 29.76 in1007.8 mb - 0.00 in0.0 mm 0.00 in0.0 mm
10:25 PM 74.7°F23.7°C 62.2°F16.8°C 65% Calm Calm -- 29.75 in1007.5 mb - 0.00 in0.0 mm 0.00 in0.0 mm
10:30 PM 74.5°F23.6°C 62.4°F16.9°C 66% Calm Calm -- 29.75 in1007.5 mb - 0.00 in0.0 mm 0.00 in0.0 mm
10:35 PM 74.3°F23.5°C 62.2°F16.8°C 66% Calm Calm -- 29.75 in1007.5 mb - 0.00 in0.0 mm 0.00 in0.0 mm
10:40 PM 74.0°F23.3°C 62.3°F16.8°C 67% Calm Calm -- 29.76 in1007.8 mb - 0.00 in0.0 mm 0.00 in0.0 mm
10:45 PM 73.9°F23.3°C 62.7°F17.1°C 68% Calm Calm -- 29.76 in1007.8 mb - 0.00 in0.0 mm 0.00 in0.0 mm
10:50 PM 73.8°F23.2°C 62.5°F16.9°C 68% Calm Calm -- 29.76 in1007.8 mb - 0.00 in0.0 mm 0.00 in0.0 mm
10:55 PM 73.5°F23.1°C 62.7°F17.1°C 69% Calm Calm -- 29.76 in1007.8 mb - 0.00 in0.0 mm 0.00 in0.0 mm
11:00 PM 73.3°F22.9°C 62.9°F17.2°C 70% Calm Calm -- 29.76 in1007.8 mb - 0.00 in0.0 mm 0.00 in0.0 mm
11:05 PM 73.0°F22.8°C 62.7°F17.1°C 70% Calm Calm -- 29.76 in1007.8 mb - 0.00 in0.0 mm 0.00 in0.0 mm
11:10 PM 72.8°F22.7°C 62.4°F16.9°C 70% Calm Calm -- 29.76 in1007.8 mb - 0.00 in0.0 mm 0.00 in0.0 mm
11:15 PM 72.5°F22.5°C 62.6°F17.0°C 71% Calm Calm -- 29.76 in1007.8 mb - 0.00 in0.0 mm 0.00 in0.0 mm
11:20 PM 72.4°F22.4°C 62.5°F16.9°C 71% Calm Calm -- 29.76 in1007.8 mb - 0.00 in0.0 mm 0.00 in0.0 mm
11:25 PM 72.4°F22.4°C 62.5°F16.9°C 71% Calm Calm -- 29.76 in1007.8 mb - 0.00 in0.0 mm 0.00 in0.0 mm
11:30 PM 72.2°F22.3°C 63.1°F17.3°C 73% Calm Calm -- 29.76 in1007.8 mb - 0.00 in0.0 mm 0.00 in0.0 mm
11:35 PM 72.0°F22.2°C 61.7°F16.5°C 70% Calm Calm -- 29.76 in1007.8 mb - 0.00 in0.0 mm 0.00 in0.0 mm
11:40 PM 71.9°F22.2°C 61.6°F16.4°C 70% Calm Calm -- 29.76 in1007.8 mb - 0.00 in0.0 mm 0.00 in0.0 mm
11:45 PM 71.8°F22.1°C 63.1°F17.3°C 74% Calm Calm -- 29.76 in1007.8 mb - 0.00 in0.0 mm 0.00 in0.0 mm
11:50 PM 71.5°F21.9°C 62.4°F16.9°C 73% Calm Calm -- 29.76 in1007.8 mb - 0.00 in0.0 mm 0.00 in0.0 mm
11:55 PM 71.3°F21.8°C 62.9°F17.2°C 75% Calm Calm -- 29.76 in1007.8 mb - 0.00 in0.0 mm 0.00 in0.0 mm